Time;durP1;ratioP1;P1;durP2;ratioP2;P2;SDS_P1;SDS_P2;PMS_P1;PMS_P2;Temp;Humidity;BMP_temperature;BMP_pressure;BME280_temperature;BME280_humidity;BME280_pressure;Samples;Min_cycle;Max_cycle;Signal;HPM_P1;HPM_P2
2021/10/22 00:02:20;;;;;;;16.33;4.97;;;7.70;99.90;;;;;;5098244;28;20182;-87
2021/10/22 00:04:57;;;;;;;16.77;5.67;;;7.70;99.90;;;;;;5077224;28;20176;-86
2021/10/22 00:07:26;;;;;;;13.97;4.40;;;7.80;99.90;;;;;;5083795;28;20186;-85
2021/10/22 00:10:06;;;;;;;11.50;4.33;;;7.70;99.90;;;;;;5098442;28;20196;-85
2021/10/22 00:12:32;;;;;;;16.60;4.93;;;7.60;99.90;;;;;;5118708;28;20147;-85
2021/10/22 00:14:57;;;;;;;14.03;4.57;;;7.50;99.90;;;;;;5099049;28;20620;-86
2021/10/22 00:17:23;;;;;;;17.43;4.70;;;7.50;99.90;;;;;;5096685;28;20171;-87
2021/10/22 00:19:50;;;;;;;15.47;4.90;;;7.50;99.90;;;;;;5110802;28;20247;-85
2021/10/22 00:22:17;;;;;;;16.57;4.70;;;7.40;99.90;;;;;;5094973;28;20741;-86
2021/10/22 00:24:43;;;;;;;16.50;4.90;;;7.40;99.90;;;;;;5075782;28;20226;-86
2021/10/22 00:27:10;;;;;;;14.83;4.67;;;7.60;99.90;;;;;;5093767;28;20164;-86
2021/10/22 00:29:36;;;;;;;11.93;4.20;;;7.50;99.90;;;;;;5075445;28;20326;-87
2021/10/22 00:32:02;;;;;;;16.67;5.77;;;7.40;99.90;;;;;;5093167;28;20199;-86
2021/10/22 00:34:28;;;;;;;12.53;5.00;;;7.50;99.90;;;;;;5075555;28;20623;-86
2021/10/22 00:36:55;;;;;;;13.67;5.30;;;7.50;99.90;;;;;;5075437;28;20211;-86
2021/10/22 00:39:20;;;;;;;20.37;5.17;;;7.60;99.90;;;;;;5075868;28;20195;-86
2021/10/22 00:41:49;;;;;;;14.57;5.10;;;7.70;99.90;;;;;;5104101;28;20175;-86
2021/10/22 00:44:15;;;;;;;15.80;5.23;;;7.60;99.90;;;;;;5090209;28;20191;-85
2021/10/22 00:46:40;;;;;;;15.40;5.57;;;7.50;99.90;;;;;;5107569;28;20171;-86
2021/10/22 00:49:11;;;;;;;13.73;5.27;;;7.40;99.90;;;;;;5091003;28;20168;-85
2021/10/22 00:51:38;;;;;;;16.77;6.37;;;7.50;99.90;;;;;;5079031;28;20194;-86
2021/10/22 00:54:05;;;;;;;16.70;6.00;;;7.40;99.90;;;;;;5079101;28;20193;-86
2021/10/22 00:56:33;;;;;;;15.43;5.97;;;7.40;99.90;;;;;;5097187;28;20203;-86
2021/10/22 00:58:59;;;;;;;15.30;6.43;;;7.40;99.90;;;;;;5097163;28;20163;-86
2021/10/22 01:01:26;;;;;;;15.70;6.00;;;7.30;99.90;;;;;;5078651;28;20180;-87
2021/10/22 01:03:52;;;;;;;16.27;6.97;;;7.30;99.90;;;;;;5096972;28;20160;-86
2021/10/22 01:06:17;;;;;;;20.20;6.70;;;7.20;99.90;;;;;;5078506;28;20278;-86
2021/10/22 01:08:43;;;;;;;20.37;6.20;;;7.20;99.90;;;;;;5078243;28;20654;-86
2021/10/22 01:11:09;;;;;;;15.47;5.63;;;7.10;99.90;;;;;;5096744;28;20198;-86
2021/10/22 01:13:36;;;;;;;13.20;5.73;;;7.40;99.90;;;;;;5097074;28;20640;-86
2021/10/22 01:16:02;;;;;;;15.57;5.83;;;7.20;99.90;;;;;;5076659;28;20204;-85
2021/10/22 01:18:29;;;;;;;18.87;5.63;;;7.10;99.90;;;;;;5096789;28;20164;-85
2021/10/22 01:21:03;;;;;;;16.10;6.10;;;7.10;99.90;;;;;;5077250;28;20635;-86
2021/10/22 01:23:29;;;;;;;15.67;5.23;;;7.10;99.90;;;;;;5078203;28;20175;-86
2021/10/22 01:25:55;;;;;;;13.07;4.70;;;7.20;99.90;;;;;;5077875;28;20175;-85
2021/10/22 01:28:22;;;;;;;15.43;5.17;;;7.10;99.90;;;;;;5078792;28;20549;-86
2021/10/22 01:30:48;;;;;;;14.90;5.30;;;7.10;99.90;;;;;;5096151;28;20160;-86
2021/10/22 01:33:18;;;;;;;13.50;5.57;;;7.10;99.90;;;;;;5078579;28;20168;-85
2021/10/22 01:35:49;;;;;;;15.83;5.83;;;7.10;99.90;;;;;;5077932;28;20207;-85
2021/10/22 01:38:20;;;;;;;16.03;5.00;;;7.00;99.90;;;;;;5080521;28;20238;-85
2021/10/22 01:40:49;;;;;;;15.73;5.40;;;7.10;99.90;;;;;;5080877;28;20172;-85
2021/10/22 01:43:15;;;;;;;17.67;4.70;;;7.10;99.90;;;;;;5080344;28;20542;-86
2021/10/22 01:45:41;;;;;;;15.20;5.37;;;7.10;99.90;;;;;;5076856;28;20172;-84
2021/10/22 01:48:07;;;;;;;11.43;5.40;;;7.10;99.90;;;;;;5077861;28;20203;-85
2021/10/22 01:50:33;;;;;;;13.97;4.80;;;7.30;99.90;;;;;;5078103;28;20200;-86
2021/10/22 01:52:59;;;;;;;14.80;4.80;;;7.30;99.90;;;;;;5095855;28;20674;-85
2021/10/22 01:55:25;;;;;;;15.73;5.17;;;7.20;99.90;;;;;;5077859;28;20239;-86
2021/10/22 01:57:50;;;;;;;11.77;4.37;;;7.20;99.90;;;;;;5077310;28;20203;-85
2021/10/22 02:00:16;;;;;;;9.80;4.43;;;7.10;99.90;;;;;;5095499;28;20217;-85
2021/10/22 02:02:42;;;;;;;13.63;4.67;;;7.10;99.90;;;;;;5094934;28;20159;-85
2021/10/22 02:05:08;;;;;;;13.87;4.47;;;7.10;99.90;;;;;;5096116;28;20168;-85
2021/10/22 02:07:34;;;;;;;14.40;4.90;;;7.10;99.90;;;;;;5077456;28;20172;-85
2021/10/22 02:10:00;;;;;;;11.70;4.40;;;7.10;99.90;;;;;;5077562;28;20199;-85
2021/10/22 02:12:26;;;;;;;12.43;4.33;;;7.10;99.90;;;;;;5077924;28;20591;-85
2021/10/22 02:14:52;;;;;;;16.13;5.20;;;7.20;99.70;;;;;;5077279;28;20258;-85
2021/10/22 02:17:18;;;;;;;17.73;4.57;;;7.00;99.50;;;;;;5096460;28;20611;-86
2021/10/22 02:19:44;;;;;;;11.43;3.73;;;7.10;99.30;;;;;;5077427;28;20168;-86
2021/10/22 02:22:10;;;;;;;11.67;3.80;;;7.10;98.90;;;;;;5078119;28;20210;-86
2021/10/22 02:24:37;;;;;;;12.83;4.30;;;7.10;98.50;;;;;;5077861;28;20179;-86
2021/10/22 02:27:03;;;;;;;11.90;4.10;;;7.10;98.20;;;;;;5077563;28;20194;-85
2021/10/22 02:29:28;;;;;;;11.90;4.13;;;7.20;96.50;;;;;;5095446;28;20163;-85
2021/10/22 02:31:54;;;;;;;13.97;3.90;;;7.10;95.90;;;;;;5077440;28;20164;-86
2021/10/22 02:34:20;;;;;;;12.67;4.00;;;7.30;95.80;;;;;;5078240;28;20171;-85
2021/10/22 02:36:45;;;;;;;13.73;3.60;;;7.10;95.80;;;;;;5077766;28;20222;-85
2021/10/22 02:39:11;;;;;;;12.30;3.83;;;7.20;94.80;;;;;;5078961;28;20167;-85
2021/10/22 02:41:37;;;;;;;11.20;4.40;;;7.20;94.80;;;;;;5078576;28;20199;-85
2021/10/22 02:44:02;;;;;;;9.93;4.30;;;7.10;95.00;;;;;;5095033;28;20164;-85
2021/10/22 02:46:28;;;;;;;11.00;4.10;;;7.10;94.80;;;;;;5077380;28;20179;-85
2021/10/22 02:48:54;;;;;;;12.43;3.77;;;7.20;94.60;;;;;;5089143;28;20175;-85
2021/10/22 02:51:19;;;;;;;10.93;3.73;;;7.30;94.20;;;;;;5114638;28;20176;-85
2021/10/22 02:53:45;;;;;;;12.77;3.97;;;7.10;94.20;;;;;;5100095;28;20215;-85
2021/10/22 02:56:11;;;;;;;12.93;3.30;;;7.10;93.90;;;;;;5098488;28;20211;-85
2021/10/22 02:58:36;;;;;;;12.57;3.83;;;7.00;93.70;;;;;;5093799;28;20167;-84
2021/10/22 03:01:04;;;;;;;13.13;3.33;;;7.00;94.10;;;;;;5095835;28;20171;-85
2021/10/22 03:03:30;;;;;;;10.20;3.20;;;7.00;94.20;;;;;;5076622;28;20258;-84
2021/10/22 03:05:55;;;;;;;12.87;3.70;;;7.00;94.50;;;;;;5094142;28;20670;-85
2021/10/22 03:08:21;;;;;;;14.50;3.63;;;7.00;94.40;;;;;;5101387;28;20207;-85
2021/10/22 03:10:47;;;;;;;12.70;3.30;;;6.90;94.50;;;;;;5118399;28;20183;-84
2021/10/22 03:13:12;;;;;;;10.83;3.77;;;6.90;94.60;;;;;;5106301;28;20175;-85
2021/10/22 03:15:39;;;;;;;14.63;3.53;;;6.90;94.70;;;;;;5095872;28;20203;-85
2021/10/22 03:18:07;;;;;;;10.23;3.10;;;7.00;95.10;;;;;;5095854;28;20187;-85
2021/10/22 03:20:35;;;;;;;11.13;3.40;;;6.90;94.80;;;;;;5093668;28;20175;-85
2021/10/22 03:23:01;;;;;;;7.20;2.73;;;6.90;94.20;;;;;;5076767;28;20213;-85
2021/10/22 03:25:26;;;;;;;11.13;2.90;;;6.90;94.10;;;;;;5094705;28;20520;-85
2021/10/22 03:27:53;;;;;;;9.47;3.00;;;7.00;93.60;;;;;;5094539;28;20552;-84
2021/10/22 03:30:19;;;;;;;10.43;3.13;;;6.80;94.00;;;;;;5095154;28;20163;-84
2021/10/22 03:32:44;;;;;;;7.90;3.10;;;6.80;94.50;;;;;;5095004;28;20164;-85
2021/10/22 03:35:10;;;;;;;12.60;3.83;;;6.80;94.40;;;;;;5096517;28;20210;-85
2021/10/22 03:37:36;;;;;;;11.43;3.23;;;6.80;94.40;;;;;;5077905;28;20191;-85
2021/10/22 03:40:03;;;;;;;10.27;3.43;;;6.80;94.00;;;;;;5077851;28;20199;-85
2021/10/22 03:42:29;;;;;;;11.23;2.73;;;6.80;93.80;;;;;;5077980;28;20186;-84
2021/10/22 03:44:55;;;;;;;13.47;3.80;;;6.80;94.20;;;;;;5079032;28;20193;-84
2021/10/22 03:47:22;;;;;;;10.57;3.03;;;6.70;94.50;;;;;;5077407;28;20174;-85
2021/10/22 03:49:48;;;;;;;6.97;2.40;;;6.80;94.30;;;;;;5086062;28;20158;-83
2021/10/22 03:52:13;;;;;;;11.83;3.43;;;6.80;93.90;;;;;;5088382;28;20196;-84
2021/10/22 03:54:40;;;;;;;10.87;2.83;;;6.80;94.40;;;;;;5088878;28;20247;-84
2021/10/22 03:57:06;;;;;;;12.87;3.90;;;6.80;94.60;;;;;;5091184;28;20297;-83
2021/10/22 03:59:31;;;;;;;14.00;3.97;;;6.70;94.80;;;;;;5090798;28;20171;-84
2021/10/22 04:01:57;;;;;;;14.40;3.73;;;6.70;94.80;;;;;;5089856;28;20214;-84
2021/10/22 04:04:28;;;;;;;12.33;3.80;;;6.70;95.20;;;;;;5098768;28;20159;-84
2021/10/22 04:06:56;;;;;;;11.33;3.20;;;6.80;95.20;;;;;;5078650;28;20172;-85
2021/10/22 04:09:25;;;;;;;11.00;3.47;;;6.70;94.90;;;;;;5077015;28;20187;-84
2021/10/22 04:11:52;;;;;;;12.23;3.53;;;6.70;95.10;;;;;;5075465;28;20174;-85
2021/10/22 04:14:22;;;;;;;9.20;3.13;;;6.60;95.60;;;;;;5075848;28;20628;-86
2021/10/22 04:16:48;;;;;;;13.47;3.97;;;6.70;95.70;;;;;;5094172;28;20203;-85
2021/10/22 04:19:14;;;;;;;9.00;3.67;;;6.70;95.50;;;;;;5098476;28;20204;-84
2021/10/22 04:21:40;;;;;;;11.67;4.00;;;6.70;95.70;;;;;;5082157;28;20179;-84
2021/10/22 04:24:05;;;;;;;8.90;3.60;;;6.80;95.70;;;;;;5084932;28;20195;-83
2021/10/22 04:26:31;;;;;;;10.50;3.70;;;6.70;95.50;;;;;;5114333;28;20202;-83
2021/10/22 04:28:57;;;;;;;13.37;3.23;;;6.80;95.20;;;;;;5095348;28;20263;-84
2021/10/22 04:31:22;;;;;;;7.00;4.13;;;6.80;95.00;;;;;;5077033;28;20654;-84
2021/10/22 04:33:48;;;;;;;10.73;3.47;;;6.70;96.00;;;;;;5092862;28;20255;-84
2021/10/22 04:36:14;;;;;;;10.73;3.50;;;6.70;95.60;;;;;;5093624;28;20574;-84
2021/10/22 04:41:25;;;;;;;9.57;3.67;;;6.70;95.90;;;;;;5093231;28;20182;-84
2021/10/22 04:43:51;;;;;;;9.37;2.90;;;6.60;96.50;;;;;;5093510;28;20160;-84
2021/10/22 04:46:18;;;;;;;9.57;3.70;;;6.70;96.70;;;;;;5075328;28;20172;-84
2021/10/22 04:48:45;;;;;;;8.87;3.33;;;6.80;96.80;;;;;;5093285;28;20170;-84
2021/10/22 04:51:11;;;;;;;9.90;3.33;;;6.60;96.90;;;;;;5073897;28;20183;-84
2021/10/22 04:53:36;;;;;;;8.33;3.00;;;6.70;96.90;;;;;;5076037;28;20183;-84
2021/10/22 04:56:02;;;;;;;11.80;3.30;;;6.60;97.10;;;;;;5099972;28;20207;-84
2021/10/22 04:58:28;;;;;;;9.90;3.20;;;6.70;97.20;;;;;;5084999;28;20266;-84
2021/10/22 05:00:54;;;;;;;7.83;2.53;;;6.60;97.10;;;;;;5075573;28;20541;-85
2021/10/22 05:03:20;;;;;;;8.23;2.80;;;6.60;97.40;;;;;;5076464;28;20536;-85
2021/10/22 05:05:46;;;;;;;9.67;3.67;;;6.60;98.00;;;;;;5096467;28;20171;-85
2021/10/22 05:08:13;;;;;;;8.17;3.90;;;6.60;97.70;;;;;;5080086;28;20172;-84
2021/10/22 05:10:39;;;;;;;8.27;3.23;;;6.60;98.10;;;;;;5077809;28;20280;-84
2021/10/22 05:13:05;;;;;;;8.90;3.13;;;6.60;98.30;;;;;;5093337;28;20171;-85
2021/10/22 05:15:31;;;;;;;8.80;3.17;;;6.60;97.90;;;;;;5093659;28;20202;-85
2021/10/22 05:17:56;;;;;;;11.90;4.37;;;6.70;97.90;;;;;;5075283;28;20168;-85
2021/10/22 05:20:22;;;;;;;8.73;2.83;;;6.60;97.80;;;;;;5075672;28;20182;-85
2021/10/22 05:22:54;;;;;;;12.33;3.70;;;6.70;98.10;;;;;;5078943;28;20172;-85
2021/10/22 05:25:20;;;;;;;9.87;2.77;;;6.60;98.20;;;;;;5079084;28;20677;-86
2021/10/22 05:27:46;;;;;;;7.63;3.27;;;6.50;98.70;;;;;;5111259;28;20166;-85
2021/10/22 05:30:13;;;;;;;7.80;2.77;;;6.60;99.10;;;;;;5094836;28;20673;-86
2021/10/22 05:32:39;;;;;;;9.30;3.67;;;6.60;98.80;;;;;;5095616;28;20170;-82
2021/10/22 05:35:06;;;;;;;12.67;3.53;;;6.60;99.10;;;;;;5112956;28;20163;-85
2021/10/22 05:37:31;;;;;;;6.27;2.80;;;6.60;98.80;;;;;;5115680;28;20191;-84
2021/10/22 05:39:57;;;;;;;8.50;2.93;;;6.60;99.00;;;;;;5099083;28;20167;-84
2021/10/22 05:42:23;;;;;;;6.17;2.83;;;6.60;98.80;;;;;;5095002;28;20207;-84
2021/10/22 05:44:50;;;;;;;8.73;3.40;;;6.70;98.50;;;;;;5096215;27;20224;-83
2021/10/22 05:47:22;;;;;;;9.87;3.10;;;6.70;98.30;;;;;;5122080;27;20328;-85
2021/10/22 05:49:47;;;;;;;9.27;3.20;;;6.70;98.20;;;;;;5124713;28;20183;-85
2021/10/22 05:52:13;;;;;;;7.90;3.30;;;6.60;98.50;;;;;;5119499;28;20488;-82
2021/10/22 05:54:39;;;;;;;9.67;3.27;;;6.60;98.60;;;;;;5139188;28;20175;-83
2021/10/22 05:57:05;;;;;;;9.40;3.37;;;6.60;98.90;;;;;;5102524;28;20283;-84
2021/10/22 05:59:31;;;;;;;11.50;3.33;;;6.60;99.10;;;;;;5100000;28;20646;-84
2021/10/22 06:01:57;;;;;;;9.50;2.83;;;6.60;99.20;;;;;;5099326;28;20684;-84
2021/10/22 06:04:25;;;;;;;8.70;3.47;;;6.50;99.60;;;;;;5098028;28;20208;-84
2021/10/22 06:06:51;;;;;;;10.73;3.20;;;6.60;99.70;;;;;;5116106;28;20167;-84
2021/10/22 06:09:17;;;;;;;7.30;3.00;;;6.60;99.50;;;;;;5097005;28;20190;-83
2021/10/22 06:11:42;;;;;;;9.63;3.23;;;6.50;99.70;;;;;;5115640;28;20724;-83
2021/10/22 06:14:09;;;;;;;10.63;3.50;;;6.60;99.90;;;;;;5098086;28;20645;-84
2021/10/22 06:16:37;;;;;;;9.83;3.50;;;6.60;99.70;;;;;;5109633;28;20222;-84
2021/10/22 06:19:04;;;;;;;9.90;2.93;;;6.60;99.90;;;;;;5106032;28;20171;-84
2021/10/22 06:24:03;;;;;;;9.87;3.00;;;6.60;99.90;;;;;;5122869;28;20171;-84
2021/10/22 06:26:39;;;;;;;9.63;3.07;;;6.50;99.90;;;;;;5119844;28;20171;-86
2021/10/22 06:29:07;;;;;;;7.93;3.40;;;6.60;99.90;;;;;;5102281;28;20221;-85
2021/10/22 06:31:36;;;;;;;7.37;3.17;;;6.60;99.90;;;;;;5118121;28;20163;-86
2021/10/22 06:34:02;;;;;;;8.53;3.27;;;6.70;99.90;;;;;;5120554;28;20159;-84
2021/10/22 06:36:28;;;;;;;8.20;3.50;;;6.70;99.80;;;;;;5118793;28;20224;-84
2021/10/22 06:38:54;;;;;;;8.57;3.53;;;6.70;99.60;;;;;;5097259;28;20171;-83
2021/10/22 06:41:20;;;;;;;7.73;3.10;;;6.70;99.70;;;;;;5116234;28;20259;-84
2021/10/22 06:43:46;;;;;;;7.23;3.23;;;6.70;99.50;;;;;;5117842;28;20181;-84
2021/10/22 06:46:13;;;;;;;9.73;2.93;;;6.70;99.70;;;;;;5101106;28;20586;-83
2021/10/22 06:48:40;;;;;;;7.40;3.20;;;6.70;99.30;;;;;;5109957;28;20197;-86
2021/10/22 06:51:09;;;;;;;8.50;2.93;;;6.90;98.60;;;;;;5136135;28;20251;-85
2021/10/22 06:53:36;;;;;;;7.07;3.30;;;6.90;98.60;;;;;;5132281;28;20173;-83
2021/10/22 06:56:07;;;;;;;9.13;4.37;;;6.90;98.70;;;;;;5108870;28;20222;-84
2021/10/22 06:58:33;;;;;;;8.17;3.17;;;6.90;98.70;;;;;;5124548;28;20189;-85
2021/10/22 07:01:00;;;;;;;12.30;3.93;;;7.00;98.50;;;;;;5118044;28;20615;-85
2021/10/22 07:03:27;;;;;;;9.87;3.33;;;7.10;98.50;;;;;;5098801;28;20163;-85
2021/10/22 07:08:26;;;;;;;9.40;3.70;;;7.20;97.80;;;;;;5115841;28;20171;-85
2021/10/22 07:10:52;;;;;;;7.93;4.00;;;7.20;97.80;;;;;;5097495;28;20191;-85
2021/10/22 07:13:20;;;;;;;7.23;3.73;;;7.30;97.60;;;;;;5097783;28;20171;-85
2021/10/22 07:15:46;;;;;;;10.70;3.67;;;7.20;97.40;;;;;;5097371;28;20706;-86
2021/10/22 07:18:16;;;;;;;11.17;3.83;;;7.40;97.50;;;;;;5097252;28;20179;-85
2021/10/22 07:20:42;;;;;;;8.33;3.50;;;7.40;97.00;;;;;;5097142;28;20217;-84
2021/10/22 07:23:11;;;;;;;8.07;3.60;;;7.50;96.50;;;;;;5097537;28;20528;-85
2021/10/22 07:25:41;;;;;;;10.53;3.30;;;7.50;96.20;;;;;;5115527;28;20159;-85
2021/10/22 07:28:18;;;;;;;7.90;2.80;;;7.70;95.00;;;;;;5116572;28;20641;-85
2021/10/22 07:30:45;;;;;;;10.03;3.20;;;7.80;94.30;;;;;;5117179;28;20221;-84
2021/10/22 07:33:12;;;;;;;11.73;3.87;;;8.00;92.90;;;;;;5098185;28;20201;-85
2021/10/22 07:35:41;;;;;;;10.10;3.13;;;8.00;92.10;;;;;;5098883;28;20207;-85
2021/10/22 07:38:12;;;;;;;12.00;3.73;;;8.10;91.90;;;;;;5100459;28;20232;-84
2021/10/22 07:40:40;;;;;;;7.50;2.93;;;8.10;91.50;;;;;;5099770;28;20175;-84
2021/10/22 07:43:06;;;;;;;10.43;3.90;;;8.20;91.20;;;;;;5107537;28;20186;-81
2021/10/22 07:45:32;;;;;;;12.30;4.13;;;8.30;90.90;;;;;;5119336;28;20622;-80
2021/10/22 07:47:59;;;;;;;8.60;3.17;;;8.40;89.60;;;;;;5099210;28;20182;-83
2021/10/22 07:50:25;;;;;;;14.67;3.33;;;8.40;86.70;;;;;;5098092;28;20199;-81
2021/10/22 07:52:51;;;;;;;10.13;3.93;;;8.40;87.40;;;;;;5116716;28;20205;-82
2021/10/22 07:55:17;;;;;;;8.43;2.97;;;8.40;86.90;;;;;;5116619;28;20171;-82
2021/10/22 07:57:42;;;;;;;8.40;3.60;;;8.40;86.20;;;;;;5113575;28;20576;-80
2021/10/22 08:00:09;;;;;;;7.20;2.97;;;8.50;87.00;;;;;;5114814;28;20230;-81
2021/10/22 08:02:37;;;;;;;11.47;3.37;;;8.60;85.70;;;;;;5121654;28;20244;-81
2021/10/22 08:05:05;;;;;;;12.90;3.53;;;8.60;84.90;;;;;;5087749;28;20642;-80
2021/10/22 08:07:30;;;;;;;7.40;2.70;;;8.60;85.90;;;;;;5127548;28;20155;-82
2021/10/22 08:09:58;;;;;;;10.77;3.20;;;8.70;83.30;;;;;;5101583;28;20205;-81
2021/10/22 08:12:25;;;;;;;9.47;3.40;;;8.70;84.90;;;;;;5101469;28;20179;-81
2021/10/22 08:14:51;;;;;;;10.27;3.70;;;8.80;83.90;;;;;;5098943;28;20583;-81
2021/10/22 08:17:18;;;;;;;9.97;3.03;;;8.90;84.30;;;;;;5114244;28;20206;-81
2021/10/22 08:19:50;;;;;;;17.80;3.70;;;9.00;86.00;;;;;;5096546;28;20171;-81
2021/10/22 08:22:30;;;;;;;9.80;3.40;;;9.10;82.10;;;;;;5104605;28;20191;-80
2021/10/22 08:25:13;;;;;;;8.03;3.30;;;9.20;80.00;;;;;;5099529;28;20187;-80
2021/10/22 08:27:47;;;;;;;8.73;2.80;;;9.20;78.40;;;;;;5114674;28;20155;-81
2021/10/22 08:30:21;;;;;;;7.90;3.80;;;9.20;75.90;;;;;;5096335;28;20661;-80
2021/10/22 08:32:50;;;;;;;8.27;2.83;;;9.20;81.00;;;;;;5095095;28;20333;-82
2021/10/22 08:35:19;;;;;;;10.97;3.43;;;9.30;80.00;;;;;;5123222;27;20155;-82
2021/10/22 08:37:45;;;;;;;7.27;2.70;;;9.40;81.20;;;;;;5133572;28;20167;-81
2021/10/22 08:40:15;;;;;;;11.50;3.57;;;9.60;74.70;;;;;;5114810;28;20185;-80
2021/10/22 08:42:43;;;;;;;8.67;2.90;;;9.60;73.60;;;;;;5095798;28;20174;-81
2021/10/22 08:45:10;;;;;;;12.53;3.70;;;9.70;66.80;;;;;;5096762;28;20179;-81
2021/10/22 08:47:36;;;;;;;8.73;2.90;;;9.80;72.60;;;;;;5098094;28;20213;-80
2021/10/22 08:50:08;;;;;;;9.73;3.17;;;9.80;69.70;;;;;;5098847;28;20537;-80
2021/10/22 08:52:34;;;;;;;7.40;2.47;;;9.80;70.90;;;;;;5118315;28;20206;-81
2021/10/22 08:55:04;;;;;;;10.70;3.10;;;9.80;69.20;;;;;;5127159;28;20167;-82
2021/10/22 08:57:31;;;;;;;7.20;2.93;;;9.90;72.30;;;;;;5113617;28;20261;-81
2021/10/22 09:00:00;;;;;;;9.90;3.80;;;10.00;65.60;;;;;;5095131;28;20175;-81
2021/10/22 09:02:28;;;;;;;7.87;2.70;;;10.00;67.80;;;;;;5112186;28;20182;-80
2021/10/22 09:05:06;;;;;;;7.27;2.90;;;10.10;63.90;;;;;;5112369;28;20662;-80
2021/10/22 09:07:51;;;;;;;8.63;2.87;;;10.10;63.90;;;;;;5094923;28;20170;-82
2021/10/22 09:10:19;;;;;;;8.97;3.10;;;10.00;63.50;;;;;;5113922;28;20189;-80
2021/10/22 09:13:01;;;;;;;9.73;3.57;;;10.10;70.60;;;;;;5116819;28;20597;-79
2021/10/22 09:15:37;;;;;;;9.27;2.90;;;10.10;65.20;;;;;;5098123;28;21010;-82
2021/10/22 09:18:13;;;;;;;13.30;3.40;;;10.20;63.50;;;;;;5098744;28;20315;-82
2021/10/22 09:20:54;;;;;;;8.17;3.03;;;10.20;67.10;;;;;;5117556;28;20630;-81
2021/10/22 09:23:25;;;;;;;9.80;3.13;;;10.30;64.30;;;;;;5099272;28;20187;-81
2021/10/22 09:25:52;;;;;;;9.00;3.23;;;10.40;65.20;;;;;;5099020;28;20175;-81
2021/10/22 09:28:27;;;;;;;10.97;3.47;;;10.40;60.30;;;;;;5117170;28;20649;-82
2021/10/22 09:30:53;;;;;;;12.40;3.87;;;10.50;60.90;;;;;;5115439;28;20170;-80
2021/10/22 09:33:24;;;;;;;8.90;2.93;;;10.50;63.70;;;;;;5115327;28;20189;-83
2021/10/22 09:35:54;;;;;;;7.93;2.90;;;10.60;59.90;;;;;;5117338;28;20198;-82
2021/10/22 09:38:25;;;;;;;12.30;3.90;;;10.80;59.00;;;;;;5099052;28;20263;-83
2021/10/22 09:41:04;;;;;;;11.37;4.13;;;10.80;57.90;;;;;;5092543;28;20224;-83
2021/10/22 09:43:41;;;;;;;7.53;2.70;;;10.80;58.80;;;;;;5095840;28;20253;-81
2021/10/22 09:46:16;;;;;;;11.93;3.50;;;10.90;56.00;;;;;;5078374;28;20202;-82
2021/10/22 09:48:58;;;;;;;11.30;3.30;;;10.80;55.40;;;;;;5078219;28;20171;-82
2021/10/22 09:51:33;;;;;;;10.20;3.23;;;10.90;59.50;;;;;;5078701;28;20202;-81
2021/10/22 09:54:12;;;;;;;7.60;2.90;;;11.00;59.90;;;;;;5102582;28;20187;-81
2021/10/22 09:56:41;;;;;;;11.07;3.20;;;11.20;53.70;;;;;;5104942;28;20207;-80
2021/10/22 09:59:25;;;;;;;9.60;3.50;;;11.20;52.90;;;;;;5089080;28;20163;-79
2021/10/22 10:01:54;;;;;;;8.20;3.10;;;11.40;47.10;;;;;;5104570;28;20164;-81
2021/10/22 10:04:26;;;;;;;12.10;3.93;;;11.50;41.50;;;;;;5079664;28;20164;-80
2021/10/22 10:06:54;;;;;;;8.40;3.07;;;11.60;39.60;;;;;;5080383;28;20631;-81
2021/10/22 10:09:21;;;;;;;6.60;3.00;;;11.70;28.80;;;;;;5082242;28;20225;-81
2021/10/22 10:11:49;;;;;;;12.53;2.80;;;11.90;21.40;;;;;;5097248;28;20168;-81
2021/10/22 10:14:23;;;;;;;10.00;2.57;;;12.00;19.80;;;;;;5078075;28;20198;-81
2021/10/22 10:16:50;;;;;;;8.47;2.50;;;12.00;11.50;;;;;;5078025;28;20297;-81
2021/10/22 10:19:24;;;;;;;6.80;2.33;;;12.10;11.80;;;;;;5077933;28;20179;-82
2021/10/22 10:21:53;;;;;;;9.17;3.07;;;12.20;4.90;;;;;;5076854;28;20186;-81
2021/10/22 10:24:27;;;;;;;8.23;2.40;;;12.20;1.00;;;;;;5095563;28;20262;-81
2021/10/22 10:27:12;;;;;;;8.43;2.53;;;12.10;2.20;;;;;;5096780;28;20243;-81
2021/10/22 10:29:41;;;;;;;7.07;2.50;;;12.20;1.00;;;;;;5096166;28;20181;-81
2021/10/22 10:32:12;;;;;;;7.93;2.30;;;12.10;1.00;;;;;;5112003;28;20163;-80
2021/10/22 10:34:51;;;;;;;7.77;2.43;;;12.30;1.00;;;;;;5097188;28;20245;-81
2021/10/22 10:37:41;;;;;;;8.07;2.33;;;12.20;1.00;;;;;;5092023;28;20215;-82
2021/10/22 10:40:13;;;;;;;8.27;2.00;;;12.20;1.00;;;;;;5094438;28;20164;-81
2021/10/22 10:42:53;;;;;;;7.00;2.37;;;12.40;1.00;;;;;;5086754;28;20206;-81
2021/10/22 10:45:22;;;;;;;9.73;2.30;;;12.60;1.00;;;;;;5096858;28;20173;-81
2021/10/22 10:48:05;;;;;;;6.87;2.00;;;12.60;1.00;;;;;;5105737;28;20156;-82
2021/10/22 10:50:37;;;;;;;6.70;1.83;;;12.50;1.00;;;;;;5099950;28;20163;-80
2021/10/22 10:53:03;;;;;;;4.87;1.60;;;12.60;1.00;;;;;;5100871;28;20202;-81
2021/10/22 10:55:48;;;;;;;5.93;1.87;;;12.70;1.00;;;;;;5090640;28;20203;-81
2021/10/22 10:58:17;;;;;;;6.83;2.27;;;12.60;1.00;;;;;;5077668;28;20175;-82
2021/10/22 11:00:50;;;;;;;7.43;2.20;;;12.70;1.00;;;;;;5104738;28;20186;-81
2021/10/22 11:03:42;;;;;;;4.23;1.30;;;12.70;1.00;;;;;;5094085;28;20184;-82
2021/10/22 11:06:09;;;;;;;8.53;2.20;;;12.70;1.00;;;;;;5113290;28;20155;-81
2021/10/22 11:08:39;;;;;;;7.97;2.13;;;12.80;1.00;;;;;;5093931;28;20228;-79
2021/10/22 11:11:23;;;;;;;5.43;2.00;;;12.90;1.00;;;;;;5111106;28;20176;-82
2021/10/22 11:14:04;;;;;;;6.27;1.97;;;12.90;1.00;;;;;;5085437;28;20195;-81
2021/10/22 11:16:41;;;;;;;5.87;1.67;;;12.80;1.00;;;;;;5081937;28;20260;-81
2021/10/22 11:19:08;;;;;;;5.00;1.50;;;13.00;1.00;;;;;;5099499;28;20209;-82
2021/10/22 11:21:40;;;;;;;6.37;2.00;;;12.80;1.00;;;;;;5095177;28;20168;-82
2021/10/22 11:24:08;;;;;;;10.60;2.30;;;12.70;1.00;;;;;;5094729;28;20193;-82
2021/10/22 11:26:34;;;;;;;6.67;1.97;;;12.70;1.00;;;;;;5095618;28;20171;-83
2021/10/22 11:29:13;;;;;;;7.40;1.93;;;12.70;1.00;;;;;;5094709;28;20187;-82
2021/10/22 11:31:45;;;;;;;6.50;1.60;;;12.70;1.00;;;;;;5077112;28;20308;-81
2021/10/22 11:34:14;;;;;;;5.83;1.90;;;12.70;1.00;;;;;;5076016;28;20172;-82
2021/10/22 11:37:08;;;;;;;6.43;1.87;;;12.60;1.00;;;;;;5076658;28;20298;-81
2021/10/22 11:39:51;;;;;;;6.67;2.13;;;12.70;1.00;;;;;;5076370;28;20171;-81
2021/10/22 11:42:28;;;;;;;9.57;2.37;;;12.70;1.00;;;;;;5094415;28;20571;-80
2021/10/22 11:45:03;;;;;;;8.47;1.83;;;12.50;1.00;;;;;;5076122;28;20232;-82
2021/10/22 11:47:47;;;;;;;7.13;2.17;;;12.50;1.00;;;;;;5076609;28;20278;-80
2021/10/22 11:50:32;;;;;;;3.73;1.73;;;12.50;1.00;;;;;;5095401;28;20208;-81
2021/10/22 11:53:11;;;;;;;8.10;2.00;;;12.60;1.00;;;;;;5078511;28;20218;-80
2021/10/22 11:55:38;;;;;;;6.27;1.73;;;12.70;1.00;;;;;;5074998;28;20709;-83
2021/10/22 11:58:10;;;;;;;6.40;1.90;;;12.80;1.00;;;;;;5076229;28;20557;-81
2021/10/22 12:00:50;;;;;;;5.33;1.50;;;13.00;1.00;;;;;;5094908;28;20160;-82
2021/10/22 12:03:29;;;;;;;4.07;1.50;;;12.90;1.00;;;;;;5094276;28;20267;-80
2021/10/22 12:06:00;;;;;;;3.67;1.30;;;12.70;1.00;;;;;;5094406;28;20171;-82
2021/10/22 12:08:33;;;;;;;5.70;1.77;;;12.60;1.00;;;;;;5075815;28;20176;-81
2021/10/22 12:11:01;;;;;;;5.40;1.67;;;12.70;1.00;;;;;;5076192;28;20278;-81
2021/10/22 12:13:41;;;;;;;5.80;1.80;;;12.70;1.00;;;;;;5094072;28;20194;-84
2021/10/22 12:16:30;;;;;;;4.60;1.40;;;12.80;1.00;;;;;;5078816;28;20716;-82
2021/10/22 12:18:59;;;;;;;3.93;1.23;;;12.80;1.00;;;;;;5079895;28;20168;-83
2021/10/22 12:21:32;;;;;;;6.53;1.70;;;12.90;1.00;;;;;;5075659;28;20187;-81
2021/10/22 12:24:01;;;;;;;3.83;1.60;;;12.70;1.00;;;;;;5076074;28;20265;-82
2021/10/22 12:26:29;;;;;;;6.53;1.47;;;12.70;1.00;;;;;;5093578;28;20222;-83
2021/10/22 12:29:06;;;;;;;6.17;1.80;;;12.80;1.00;;;;;;5075899;28;20176;-81
2021/10/22 12:31:40;;;;;;;4.13;1.67;;;12.90;1.00;;;;;;5076043;28;20173;-81
2021/10/22 12:34:10;;;;;;;4.70;1.50;;;12.90;1.00;;;;;;5093480;28;20178;-81
2021/10/22 12:36:44;;;;;;;5.00;1.70;;;13.00;1.00;;;;;;5093987;28;20295;-82
2021/10/22 12:39:26;;;;;;;7.00;1.50;;;13.10;1.00;;;;;;5075243;28;20168;-81
2021/10/22 12:41:52;;;;;;;4.97;1.60;;;13.10;1.00;;;;;;5075091;28;20583;-82
2021/10/22 12:44:19;;;;;;;6.17;1.43;;;13.10;1.00;;;;;;5075669;28;20176;-82
2021/10/22 12:47:11;;;;;;;6.80;1.97;;;13.00;1.00;;;;;;5079277;28;20631;-82
2021/10/22 12:49:37;;;;;;;4.83;1.60;;;13.00;1.00;;;;;;5075622;28;20596;-82
2021/10/22 12:52:04;;;;;;;5.20;1.60;;;12.90;1.00;;;;;;5079491;28;20222;-81
2021/10/22 12:54:43;;;;;;;4.27;1.40;;;12.90;1.00;;;;;;5080946;28;20186;-81
2021/10/22 12:57:21;;;;;;;7.03;1.73;;;13.00;1.00;;;;;;5097674;28;20276;-83
2021/10/22 12:59:47;;;;;;;5.77;2.03;;;13.00;1.00;;;;;;5097790;28;20181;-82
2021/10/22 13:02:32;;;;;;;5.57;2.17;;;13.00;1.00;;;;;;5099052;28;20196;-82
2021/10/22 13:05:12;;;;;;;5.17;1.90;;;13.10;1.00;;;;;;5080983;28;20187;-82
2021/10/22 13:07:56;;;;;;;6.10;2.20;;;13.20;1.00;;;;;;5079307;28;20171;-81
2021/10/22 13:10:31;;;;;;;6.00;2.07;;;13.10;1.00;;;;;;5078469;28;20666;-82